Altair — 9LC2000 — position and weather

sailwx.info

Track history (hours):
 
Tides and Currents Weather Stations Pressure Air Temp Water Temp Dewpoint Dewpoint Depression Visibility Wind Speed Wind Dir Waves Ship Positions

Altair

Last reported at 2017-Jun-26 08:59 UTC. Time now 2017-Jun-27 01:43 UTC.
Position N 37°19' E 023°52'.

Length 108 m; draft 2.6 m.

Type: Cargo ship. MMSI: 667021000.

Date/timePositionNaut miles runAvg speedWind from/ knotsBaromVisibWave heightAir tempDewpointWater temp
2017-Jun-26 08:59N 37°19' E 023°52'  
2017-Jun-23 23:51N 37°53' E 015°42'4 7.9
2017-Jun-23 23:24N 37°55' E 015°39'3 8.5
2017-Jun-23 23:00N 37°58' E 015°36'25 6.2
2017-Jun-23 19:02N 38°20' E 015°24'3 8.0
2017-Jun-23 18:40N 38°20' E 015°20'1 8.0
2017-Jun-23 18:30N 38°20' E 015°19'4 7.9
2017-Jun-23 17:57N 38°19' E 015°13'4 7.8
2017-Jun-23 17:30N 38°19' E 015°09'4 7.7
2017-Jun-23 16:58N 38°19' E 015°03'11 8.2
2017-Jun-23 15:40N 38°20' E 014°50'2 8.3
2017-Jun-23 15:26N 38°20' E 014°48'63 8.2
2017-Jun-23 07:50N 38°31' E 013°29'3 8.2
2017-Jun-23 07:30N 38°31' E 013°25'5 8.1
2017-Jun-23 06:57N 38°32' E 013°20'5 8.1
2017-Jun-23 06:19N 38°33' E 013°13'3 8.3
2017-Jun-23 06:00N 38°33' E 013°10'6 8.4
2017-Jun-23 05:16N 38°34' E 013°02'2 8.3
2017-Jun-23 04:59N 38°34' E 012°59'6 8.2
2017-Jun-23 04:15N 38°34' E 012°51'2 8.1
2017-Jun-23 04:00N 38°35' E 012°49'4 8.1
2017-Jun-23 03:30N 38°35' E 012°44'5 8.0
2017-Jun-23 02:56N 38°35' E 012°38'73 8.0
2017-Jun-22 17:50N 38°40' E 011°05'3 8.0
2017-Jun-22 17:28N 38°40' E 011°02'29 7.7
2017-Jun-22 13:46N 38°42' E 010°25'12 7.7
2017-Jun-22 12:10N 38°42' E 010°09'1 7.8
2017-Jun-22 11:59N 38°42' E 010°08'4 7.7
2017-Jun-22 11:26N 38°42' E 010°02'58 7.3
2017-Jun-22 03:29N 38°47' E 008°48'3 7.2
2017-Jun-22 03:00N 38°47' E 008°43'65 2.4
2017-Jun-21 00:03N 39°52' E 008°33'0 0.0
2017-Jun-20 23:51N 39°52' E 008°33'  
2017-Jun-16 13:19N 38°35' E 012°40'2 7.8
2017-Jun-16 13:00N 38°35' E 012°43'4 7.7
2017-Jun-16 12:30N 38°35' E 012°48'11 7.7
2017-Jun-16 11:02N 38°34' E 013°02'1 7.8
2017-Jun-16 10:56N 38°34' E 013°03'4 7.8
2017-Jun-16 10:26N 38°33' E 013°08'4 7.9
2017-Jun-16 09:57N 38°33' E 013°13'4 7.8
2017-Jun-16 09:30N 38°32' E 013°17'4 7.7
2017-Jun-16 09:00N 38°32' E 013°22'  
Track history (hours):
 
Tides and Currents Weather Stations Pressure Air Temp Water Temp Dewpoint Dewpoint Depression Visibility Wind Speed Wind Dir Waves Ship Positions

Altair

Last reported at 2017-Jun-26 08:59 UTC. Time now 2017-Jun-27 01:43 UTC.
Position N 37°19' E 023°52'.

Length 108 m; draft 2.6 m.

Type: Cargo ship. MMSI: 667021000.

Date/timePositionNaut miles runAvg speedWind from/ knotsBaromVisibWave heightAir tempDewpointWater temp
2017-Jun-26 08:59N 37°19' E 023°52'  
2017-Jun-23 23:51N 37°53' E 015°42'4 7.9
2017-Jun-23 23:24N 37°55' E 015°39'3 8.5
2017-Jun-23 23:00N 37°58' E 015°36'25 6.2
2017-Jun-23 19:02N 38°20' E 015°24'3 8.0
2017-Jun-23 18:40N 38°20' E 015°20'1 8.0
2017-Jun-23 18:30N 38°20' E 015°19'4 7.9
2017-Jun-23 17:57N 38°19' E 015°13'4 7.8
2017-Jun-23 17:30N 38°19' E 015°09'4 7.7
2017-Jun-23 16:58N 38°19' E 015°03'11 8.2
2017-Jun-23 15:40N 38°20' E 014°50'2 8.3
2017-Jun-23 15:26N 38°20' E 014°48'63 8.2
2017-Jun-23 07:50N 38°31' E 013°29'3 8.2
2017-Jun-23 07:30N 38°31' E 013°25'5 8.1
2017-Jun-23 06:57N 38°32' E 013°20'5 8.1
2017-Jun-23 06:19N 38°33' E 013°13'3 8.3
2017-Jun-23 06:00N 38°33' E 013°10'6 8.4
2017-Jun-23 05:16N 38°34' E 013°02'2 8.3
2017-Jun-23 04:59N 38°34' E 012°59'6 8.2
2017-Jun-23 04:15N 38°34' E 012°51'2 8.1
2017-Jun-23 04:00N 38°35' E 012°49'4 8.1
2017-Jun-23 03:30N 38°35' E 012°44'5 8.0
2017-Jun-23 02:56N 38°35' E 012°38'73 8.0
2017-Jun-22 17:50N 38°40' E 011°05'3 8.0
2017-Jun-22 17:28N 38°40' E 011°02'29 7.7
2017-Jun-22 13:46N 38°42' E 010°25'12 7.7
2017-Jun-22 12:10N 38°42' E 010°09'1 7.8
2017-Jun-22 11:59N 38°42' E 010°08'4 7.7
2017-Jun-22 11:26N 38°42' E 010°02'58 7.3
2017-Jun-22 03:29N 38°47' E 008°48'3 7.2
2017-Jun-22 03:00N 38°47' E 008°43'65 2.4
2017-Jun-21 00:03N 39°52' E 008°33'0 0.0
2017-Jun-20 23:51N 39°52' E 008°33'  
2017-Jun-16 13:19N 38°35' E 012°40'2 7.8
2017-Jun-16 13:00N 38°35' E 012°43'4 7.7
2017-Jun-16 12:30N 38°35' E 012°48'11 7.7
2017-Jun-16 11:02N 38°34' E 013°02'1 7.8
2017-Jun-16 10:56N 38°34' E 013°03'4 7.8
2017-Jun-16 10:26N 38°33' E 013°08'4 7.9
2017-Jun-16 09:57N 38°33' E 013°13'4 7.8
2017-Jun-16 09:30N 38°32' E 013°17'4 7.7
2017-Jun-16 09:00N 38°32' E 013°22'  

Dump ship's entire track history